Time,TemperatureF,DewpointF,PressureIn,WindDirection,WindDirectionDegrees,WindSpeedMPH,WindSpeedGustMPH,Humidity,HourlyPrecipIn,Conditions,Clouds,dailyrainin,SoftwareType,DateUTC
2013-11-19 00:01:00,57.3,52.2,29.91,NNW,340,3.0,14.0,83,0.00,,---,0.05,VWS V13.00,2013-11-19 05:01:00,
2013-11-19 00:06:00,57.1,52.0,29.91,NNE,31,7.0,12.0,83,0.00,,---,0.00,VWS V13.00,2013-11-19 05:06:00,
2013-11-19 00:11:00,57.0,51.9,29.91,NNE,15,6.0,12.0,83,0.00,,---,0.00,VWS V13.00,2013-11-19 05:11:00,
2013-11-19 00:16:00,56.8,51.7,29.91,North,350,7.0,12.0,83,0.00,,---,0.00,VWS V13.00,2013-11-19 05:16:00,
2013-11-19 00:21:00,56.7,51.6,29.91,WNW,284,4.0,12.0,83,0.00,,---,0.00,VWS V13.00,2013-11-19 05:21:00,
2013-11-19 00:26:00,56.4,51.3,29.91,NNW,338,6.0,14.0,83,0.00,,---,0.00,VWS V13.00,2013-11-19 05:26:00,
2013-11-19 00:31:00,56.2,50.8,29.91,North,360,9.0,14.0,82,0.00,,---,0.00,VWS V13.00,2013-11-19 05:31:00,
2013-11-19 00:36:00,56.0,50.6,29.91,WNW,292,8.0,15.0,82,0.00,,---,0.00,VWS V13.00,2013-11-19 05:36:00,
2013-11-19 00:41:00,55.8,50.4,29.91,NNW,344,5.0,16.0,82,0.00,,---,0.00,VWS V13.00,2013-11-19 05:41:00,
2013-11-19 00:46:00,55.5,50.1,29.91,North,350,6.0,17.0,82,0.00,,---,0.00,VWS V13.00,2013-11-19 05:46:00,
2013-11-19 00:51:00,55.3,49.9,29.91,North,355,7.0,17.0,82,0.00,,---,0.00,VWS V13.00,2013-11-19 05:51:00,
2013-11-19 00:56:00,55.1,49.7,29.91,NW,325,9.0,17.0,82,0.00,,---,0.00,VWS V13.00,2013-11-19 05:56:00,
2013-11-19 01:01:00,55.0,49.3,29.91,NNW,333,10.0,17.0,81,0.00,,---,0.00,VWS V13.00,2013-11-19 06:01:00,
2013-11-19 01:06:00,54.8,49.1,29.91,NW,324,8.0,16.0,81,0.00,,---,0.00,VWS V13.00,2013-11-19 06:06:00,
2013-11-19 01:11:00,54.6,48.9,29.91,North,349,7.0,16.0,81,0.00,,---,0.00,VWS V13.00,2013-11-19 06:11:00,
2013-11-19 01:16:00,54.4,48.7,29.91,NNW,336,7.0,16.0,81,0.00,,---,0.00,VWS V13.00,2013-11-19 06:16:00,
2013-11-19 01:21:00,54.3,48.6,29.92,NW,317,8.0,17.0,81,0.00,,---,0.00,VWS V13.00,2013-11-19 06:21:00,
2013-11-19 01:26:00,54.2,48.5,29.91,NW,319,5.0,17.0,81,0.00,,---,0.00,VWS V13.00,2013-11-19 06:26:00,
2013-11-19 01:31:00,54.1,48.4,29.92,North,355,8.0,18.0,81,0.00,,---,0.00,VWS V13.00,2013-11-19 06:31:00,
2013-11-19 01:36:00,53.9,48.2,29.92,North,360,5.0,19.0,81,0.00,,---,0.00,VWS V13.00,2013-11-19 06:36:00,
2013-11-19 01:41:00,53.7,48.0,29.92,NNW,346,5.0,19.0,81,0.00,,---,0.00,VWS V13.00,2013-11-19 06:41:00,
2013-11-19 01:46:00,53.6,47.6,29.92,NNW,336,6.0,19.0,80,0.00,,---,0.00,VWS V13.00,2013-11-19 06:46:00,
2013-11-19 01:51:00,53.6,47.6,29.92,NNW,331,7.0,19.0,80,0.00,,---,0.00,VWS V13.00,2013-11-19 06:51:00,
2013-11-19 01:56:00,53.5,47.5,29.92,North,10,13.0,19.0,80,0.00,,---,0.00,VWS V13.00,2013-11-19 06:56:00,
2013-11-19 02:01:00,53.4,47.4,29.92,NNW,328,12.0,19.0,80,0.00,,---,0.00,VWS V13.00,2013-11-19 07:01:00,
2013-11-19 02:06:00,53.3,47.3,29.92,North,351,5.0,14.0,80,0.00,,---,0.00,VWS V13.00,2013-11-19 07:06:00,
2013-11-19 02:11:00,53.2,47.2,29.93,NNW,333,7.0,14.0,80,0.00,,---,0.00,VWS V13.00,2013-11-19 07:11:00,
2013-11-19 02:16:00,53.0,47.0,29.93,NNW,346,7.0,14.0,80,0.00,,---,0.00,VWS V13.00,2013-11-19 07:16:00,
2013-11-19 02:21:00,52.9,46.9,29.93,NW,316,5.0,14.0,80,0.00,,---,0.00,VWS V13.00,2013-11-19 07:21:00,
2013-11-19 02:26:00,52.8,46.8,29.93,NNW,336,12.0,15.0,80,0.00,,---,0.00,VWS V13.00,2013-11-19 07:26:00,
2013-11-19 02:31:00,52.6,46.6,29.93,North,355,8.0,15.0,80,0.00,,---,0.00,VWS V13.00,2013-11-19 07:31:00,
2013-11-19 02:36:00,52.5,46.2,29.93,NNW,340,5.0,14.0,79,0.00,,---,0.00,VWS V13.00,2013-11-19 07:36:00,
2013-11-19 02:41:00,52.5,46.2,29.94,NW,316,4.0,14.0,79,0.00,,---,0.00,VWS V13.00,2013-11-19 07:41:00,
2013-11-19 02:46:00,52.3,46.0,29.94,NNW,340,4.0,15.0,79,0.00,,---,0.00,VWS V13.00,2013-11-19 07:46:00,
2013-11-19 02:51:00,52.3,46.0,29.94,NNW,343,5.0,15.0,79,0.00,,---,0.00,VWS V13.00,2013-11-19 07:51:00,
2013-11-19 02:56:00,52.2,45.9,29.94,NW,312,9.0,18.0,79,0.00,,---,0.00,VWS V13.00,2013-11-19 07:56:00,
2013-11-19 03:01:00,52.1,45.8,29.94,NW,304,6.0,18.0,79,0.00,,---,0.00,VWS V13.00,2013-11-19 08:01:00,
2013-11-19 03:06:00,52.1,45.8,29.95,West,278,12.0,14.0,79,0.00,,---,0.00,VWS V13.00,2013-11-19 08:06:00,
2013-11-19 03:11:00,52.0,45.7,29.95,NNW,344,5.0,14.0,79,0.00,,---,0.00,VWS V13.00,2013-11-19 08:11:00,
2013-11-19 03:16:00,51.9,45.3,29.95,NW,324,12.0,14.0,78,0.00,,---,0.00,VWS V13.00,2013-11-19 08:16:00,
2013-11-19 03:21:00,51.9,45.6,29.95,NNW,337,11.0,14.0,79,0.00,,---,0.00,VWS V13.00,2013-11-19 08:21:00,
2013-11-19 03:26:00,51.8,45.2,29.95,NNE,16,5.0,14.0,78,0.00,,---,0.00,VWS V13.00,2013-11-19 08:26:00,
2013-11-19 03:31:00,51.7,45.1,29.95,NNW,338,6.0,14.0,78,0.00,,---,0.00,VWS V13.00,2013-11-19 08:31:00,
2013-11-19 03:36:00,51.6,45.0,29.96,NNW,338,3.0,12.0,78,0.00,,---,0.00,VWS V13.00,2013-11-19 08:36:00,
2013-11-19 03:41:00,51.5,44.9,29.96,North,360,7.0,14.0,78,0.00,,---,0.00,VWS V13.00,2013-11-19 08:41:00,
2013-11-19 03:46:00,51.4,44.8,29.96,NNW,334,10.0,14.0,78,0.00,,---,0.00,VWS V13.00,2013-11-19 08:46:00,
2013-11-19 03:51:00,51.3,44.7,29.96,NW,325,6.0,14.0,78,0.00,,---,0.00,VWS V13.00,2013-11-19 08:51:00,
2013-11-19 03:56:00,51.2,44.6,29.96,NNW,344,5.0,14.0,78,0.00,,---,0.00,VWS V13.00,2013-11-19 08:56:00,
2013-11-19 04:01:00,51.1,44.5,29.96,NNW,342,5.0,15.0,78,0.00,,---,0.00,VWS V13.00,2013-11-19 09:01:00,
2013-11-19 04:06:00,51.0,44.4,29.96,NW,313,5.0,13.0,78,0.00,,---,0.00,VWS V13.00,2013-11-19 09:06:00,
2013-11-19 04:11:00,50.9,44.0,29.97,North,350,5.0,13.0,77,0.00,,---,0.00,VWS V13.00,2013-11-19 09:11:00,
2013-11-19 04:16:00,50.8,43.9,29.97,North,349,6.0,13.0,77,0.00,,---,0.00,VWS V13.00,2013-11-19 09:16:00,
2013-11-19 04:21:00,50.6,43.7,29.97,NW,324,10.0,15.0,77,0.00,,---,0.00,VWS V13.00,2013-11-19 09:21:00,
2013-11-19 04:26:00,50.5,43.6,29.97,North,350,2.0,15.0,77,0.00,,---,0.00,VWS V13.00,2013-11-19 09:26:00,
2013-11-19 04:31:00,50.4,43.5,29.97,North,355,6.0,17.0,77,0.00,,---,0.00,VWS V13.00,2013-11-19 09:31:00,
2013-11-19 04:36:00,50.4,43.5,29.97,North,5,3.0,11.0,77,0.00,,---,0.00,VWS V13.00,2013-11-19 09:36:00,
2013-11-19 04:41:00,50.2,43.3,29.98,NE,36,5.0,14.0,77,0.00,,---,0.00,VWS V13.00,2013-11-19 09:41:00,
2013-11-19 04:46:00,50.1,43.2,29.98,North,349,7.0,14.0,77,0.00,,---,0.00,VWS V13.00,2013-11-19 09:46:00,
2013-11-19 04:51:00,50.0,43.1,29.98,NW,309,3.0,14.0,77,0.00,,---,0.00,VWS V13.00,2013-11-19 09:51:00,
2013-11-19 04:56:00,49.9,43.0,29.98,North,11,2.0,14.0,77,0.00,,---,0.00,VWS V13.00,2013-11-19 09:56:00,
2013-11-19 05:01:00,49.8,42.9,29.98,North,355,7.0,14.0,77,0.00,,---,0.00,VWS V13.00,2013-11-19 10:01:00,
2013-11-19 05:06:00,49.7,42.8,29.99,NNW,338,5.0,10.0,77,0.00,,---,0.00,VWS V13.00,2013-11-19 10:06:00,
2013-11-19 05:11:00,49.5,42.6,29.99,NW,323,3.0,10.0,77,0.00,,---,0.00,VWS V13.00,2013-11-19 10:11:00,
2013-11-19 05:16:00,49.4,42.5,29.99,North,360,0.0,12.0,77,0.00,,---,0.00,VWS V13.00,2013-11-19 10:16:00,
2013-11-19 05:21:00,49.3,42.4,30.00,NNW,348,10.0,12.0,77,0.00,,---,0.00,VWS V13.00,2013-11-19 10:21:00,
2013-11-19 05:26:00,49.2,42.3,30.00,NNW,327,6.0,12.0,77,0.00,,---,0.00,VWS V13.00,2013-11-19 10:26:00,
2013-11-19 05:31:00,49.0,42.1,30.00,NNW,341,6.0,13.0,77,0.00,,---,0.00,VWS V13.00,2013-11-19 10:31:00,
2013-11-19 05:36:00,48.9,42.0,30.00,NW,308,7.0,12.0,77,0.00,,---,0.00,VWS V13.00,2013-11-19 10:36:00,
2013-11-19 05:41:00,48.8,41.9,30.01,NNW,335,6.0,12.0,77,0.00,,---,0.00,VWS V13.00,2013-11-19 10:41:00,
2013-11-19 05:46:00,48.7,41.8,30.01,NW,304,8.0,12.0,77,0.00,,---,0.00,VWS V13.00,2013-11-19 10:46:00,
2013-11-19 05:51:00,48.5,41.3,30.01,NNE,19,9.0,12.0,76,0.00,,---,0.00,VWS V13.00,2013-11-19 10:51:00,
2013-11-19 05:56:00,48.4,41.2,30.01,North,349,5.0,12.0,76,0.00,,---,0.00,VWS V13.00,2013-11-19 10:56:00,
2013-11-19 06:01:00,48.3,41.1,30.02,North,355,5.0,12.0,76,0.00,,---,0.00,VWS V13.00,2013-11-19 11:01:00,
2013-11-19 06:06:00,48.3,41.1,30.02,NNW,346,2.0,10.0,76,0.00,,---,0.00,VWS V13.00,2013-11-19 11:06:00,
2013-11-19 06:11:00,48.2,41.0,30.02,North,355,2.0,10.0,76,0.00,,---,0.00,VWS V13.00,2013-11-19 11:11:00,
2013-11-19 06:16:00,48.0,40.8,30.02,NW,326,7.0,11.0,76,0.00,,---,0.00,VWS V13.00,2013-11-19 11:16:00,
2013-11-19 06:21:00,47.9,40.7,30.03,North,5,9.0,13.0,76,0.00,,---,0.00,VWS V13.00,2013-11-19 11:21:00,
2013-11-19 06:26:00,47.8,40.6,30.03,North,360,3.0,13.0,76,0.00,,---,0.00,VWS V13.00,2013-11-19 11:26:00,
2013-11-19 06:31:00,47.7,40.5,30.03,NNW,345,8.0,13.0,76,0.00,,---,0.00,VWS V13.00,2013-11-19 11:31:00,
2013-11-19 06:36:00,47.6,40.4,30.03,NNW,336,5.0,7.0,76,0.00,,---,0.00,VWS V13.00,2013-11-19 11:36:00,
2013-11-19 06:41:00,47.4,40.2,30.04,NNW,345,5.0,9.0,76,0.00,,---,0.00,VWS V13.00,2013-11-19 11:41:00,
2013-11-19 06:46:00,47.2,40.0,30.04,NNW,335,6.0,10.0,76,0.00,,---,0.00,VWS V13.00,2013-11-19 11:46:00,
2013-11-19 06:51:00,47.0,39.8,30.05,NNE,26,3.0,10.0,76,0.00,,---,0.00,VWS V13.00,2013-11-19 11:51:00,
2013-11-19 06:56:00,46.8,39.7,30.05,NNW,327,4.0,11.0,76,0.00,,---,0.00,VWS V13.00,2013-11-19 11:56:00,
2013-11-19 07:01:00,46.7,39.5,30.05,NNW,346,5.0,11.0,76,0.00,,---,0.00,VWS V13.00,2013-11-19 12:01:00,
2013-11-19 07:06:00,46.7,39.5,30.06,North,5,4.0,10.0,76,0.00,,---,0.00,VWS V13.00,2013-11-19 12:06:00,
2013-11-19 07:11:00,46.5,39.4,30.06,North,9,6.0,12.0,76,0.00,,---,0.00,VWS V13.00,2013-11-19 12:11:00,
2013-11-19 07:16:00,46.5,39.4,30.06,NNE,15,4.0,12.0,76,0.00,,---,0.00,VWS V13.00,2013-11-19 12:16:00,
2013-11-19 07:21:00,46.6,39.5,30.06,NNE,13,8.0,12.0,76,0.00,,---,0.00,VWS V13.00,2013-11-19 12:21:00,
2013-11-19 07:26:00,46.7,39.5,30.06,North,5,3.0,12.0,76,0.00,,---,0.00,VWS V13.00,2013-11-19 12:26:00,
2013-11-19 07:31:00,46.8,39.7,30.07,WNW,297,7.0,12.0,76,0.00,,---,0.00,VWS V13.00,2013-11-19 12:31:00,
2013-11-19 07:36:00,46.8,39.7,30.07,North,5,3.0,11.0,76,0.00,,---,0.00,VWS V13.00,2013-11-19 12:36:00,
2013-11-19 07:41:00,46.9,39.7,30.07,NNW,339,5.0,13.0,76,0.00,,---,0.00,VWS V13.00,2013-11-19 12:41:00,
2013-11-19 07:46:00,47.0,39.8,30.07,NNW,342,3.0,13.0,76,0.00,,---,0.00,VWS V13.00,2013-11-19 12:46:00,
2013-11-19 07:51:00,47.2,40.0,30.08,NNW,329,5.0,13.0,76,0.00,,---,0.00,VWS V13.00,2013-11-19 12:51:00,
2013-11-19 07:56:00,47.3,40.1,30.08,North,360,4.0,14.0,76,0.00,,---,0.00,VWS V13.00,2013-11-19 12:56:00,
2013-11-19 08:01:00,47.5,40.3,30.08,NNE,19,3.0,14.0,76,0.00,,---,0.00,VWS V13.00,2013-11-19 13:01:00,
2013-11-19 08:06:00,47.9,40.7,30.08,NNE,24,10.0,12.0,76,0.00,,---,0.00,VWS V13.00,2013-11-19 13:06:00,
2013-11-19 08:11:00,48.3,40.8,30.08,NNE,32,2.0,13.0,75,0.00,,---,0.00,VWS V13.00,2013-11-19 13:11:00,
2013-11-19 08:16:00,48.6,41.0,30.09,NNE,30,2.0,13.0,75,0.00,,---,0.00,VWS V13.00,2013-11-19 13:16:00,
2013-11-19 08:21:00,48.9,41.3,30.09,North,360,6.0,13.0,75,0.00,,---,0.00,VWS V13.00,2013-11-19 13:21:00,
2013-11-19 08:26:00,49.2,41.6,30.09,NNW,345,6.0,14.0,75,0.00,,---,0.00,VWS V13.00,2013-11-19 13:26:00,
2013-11-19 08:31:00,49.5,41.9,30.09,NE,35,11.0,17.0,75,0.00,,---,0.00,VWS V13.00,2013-11-19 13:31:00,
2013-11-19 08:36:00,49.9,42.3,30.09,NNE,28,7.0,17.0,75,0.00,,---,0.00,VWS V13.00,2013-11-19 13:36:00,
2013-11-19 08:41:00,50.3,42.3,30.09,NNE,24,4.0,17.0,74,0.00,,---,0.00,VWS V13.00,2013-11-19 13:41:00,
2013-11-19 08:46:00,50.6,42.6,30.10,North,355,9.0,17.0,74,0.00,,---,0.00,VWS V13.00,2013-11-19 13:46:00,
2013-11-19 08:51:00,50.9,42.9,30.10,NNE,27,11.0,17.0,74,0.00,,---,0.00,VWS V13.00,2013-11-19 13:51:00,
2013-11-19 08:55:00,51.2,43.2,30.10,North,360,8.0,17.0,74,0.00,,---,0.00,VWS V13.00,2013-11-19 13:55:00,
2013-11-19 09:00:00,51.4,43.4,30.10,NNW,328,7.0,18.0,74,0.00,,---,0.00,VWS V13.00,2013-11-19 14:00:00,
2013-11-19 09:05:00,51.6,43.2,30.10,ENE,63,6.0,17.0,73,0.00,,---,0.00,VWS V13.00,2013-11-19 14:05:00,
2013-11-19 09:10:00,51.8,43.4,30.11,NNW,334,15.0,19.0,73,0.00,,---,0.00,VWS V13.00,2013-11-19 14:10:00,
2013-11-19 09:15:00,51.8,43.1,30.11,NNE,32,12.0,19.0,72,0.00,,---,0.00,VWS V13.00,2013-11-19 14:15:00,
2013-11-19 09:20:00,52.0,43.6,30.11,NNE,12,16.0,19.0,73,0.00,,---,0.00,VWS V13.00,2013-11-19 14:20:00,
2013-11-19 09:25:00,52.1,43.4,30.11,North,10,16.0,21.0,72,0.00,,---,0.00,VWS V13.00,2013-11-19 14:25:00,
2013-11-19 09:28:00,52.1,43.4,30.11,ENE,73,5.0,21.0,72,0.00,,---,0.00,VWS V13.00,2013-11-19 14:28:00,
2013-11-19 09:33:00,52.3,43.5,30.11,NE,40,9.0,16.0,72,0.00,,---,0.00,VWS V13.00,2013-11-19 14:33:00,
2013-11-19 09:38:00,52.5,43.8,30.11,North,5,6.0,17.0,72,0.00,,---,0.00,VWS V13.00,2013-11-19 14:38:00,
2013-11-19 09:43:00,52.6,43.8,30.11,NE,36,19.0,19.0,72,0.00,,---,0.00,VWS V13.00,2013-11-19 14:43:00,
2013-11-19 09:48:00,52.7,43.9,30.11,North,355,12.0,21.0,72,0.00,,---,0.00,VWS V13.00,2013-11-19 14:48:00,
2013-11-19 09:53:00,52.8,43.7,30.11,NNE,28,6.0,21.0,71,0.00,,---,0.00,VWS V13.00,2013-11-19 14:53:00,
2013-11-19 09:58:00,53.2,44.4,30.11,NNE,33,7.0,21.0,72,0.00,,---,0.00,VWS V13.00,2013-11-19 14:58:00,
2013-11-19 10:03:00,53.7,44.9,30.11,NE,51,12.0,17.0,72,0.00,,---,0.00,VWS V13.00,2013-11-19 15:03:00,
2013-11-19 10:08:00,54.0,44.8,30.10,NNW,345,7.0,17.0,71,0.00,,---,0.00,VWS V13.00,2013-11-19 15:08:00,
2013-11-19 10:13:00,54.3,45.1,30.11,NNE,27,8.0,17.0,71,0.00,,---,0.00,VWS V13.00,2013-11-19 15:13:00,
2013-11-19 10:18:00,54.5,45.3,30.11,NE,39,13.0,17.0,71,0.00,,---,0.00,VWS V13.00,2013-11-19 15:18:00,
2013-11-19 10:23:00,54.7,45.5,30.10,NNE,12,7.0,17.0,71,0.00,,---,0.00,VWS V13.00,2013-11-19 15:23:00,
2013-11-19 10:28:00,55.0,45.8,30.11,North,350,9.0,17.0,71,0.00,,---,0.00,VWS V13.00,2013-11-19 15:28:00,
2013-11-19 10:32:00,55.0,45.4,30.11,NW,323,7.0,15.0,70,0.00,,---,0.00,VWS V13.00,2013-11-19 15:32:00,
2013-11-19 10:37:00,55.1,45.5,30.11,North,9,8.0,17.0,70,0.00,,---,0.00,VWS V13.00,2013-11-19 15:37:00,
2013-11-19 10:42:00,55.3,45.7,30.11,North,360,9.0,17.0,70,0.00,,---,0.00,VWS V13.00,2013-11-19 15:42:00,
2013-11-19 10:47:00,55.5,45.9,30.11,North,5,7.0,17.0,70,0.00,,---,0.00,VWS V13.00,2013-11-19 15:47:00,
2013-11-19 10:53:00,55.6,45.6,30.11,ENE,62,6.0,17.0,69,0.00,,---,0.00,VWS V13.00,2013-11-19 15:53:00,
2013-11-19 10:58:00,55.5,45.5,30.12,NNE,13,11.0,19.0,69,0.00,,---,0.00,VWS V13.00,2013-11-19 15:58:00,
2013-11-19 11:03:00,55.6,45.6,30.12,NNE,26,8.0,14.0,69,0.00,,---,0.00,VWS V13.00,2013-11-19 16:03:00,
2013-11-19 11:08:00,55.7,45.7,30.12,North,360,15.0,18.0,69,0.00,,---,0.00,VWS V13.00,2013-11-19 16:08:00,
2013-11-19 11:12:00,55.8,45.8,30.12,North,350,15.0,18.0,69,0.00,,---,0.00,VWS V13.00,2013-11-19 16:12:00,
2013-11-19 11:18:00,55.9,45.9,30.11,NE,36,2.0,18.0,69,0.00,,---,0.00,VWS V13.00,2013-11-19 16:18:00,
2013-11-19 11:23:00,56.0,46.0,30.11,NE,53,14.0,18.0,69,0.00,,---,0.00,VWS V13.00,2013-11-19 16:23:00,
2013-11-19 11:27:00,56.0,45.6,30.11,North,355,15.0,18.0,68,0.00,,---,0.00,VWS V13.00,2013-11-19 16:27:00,
2013-11-19 11:32:00,56.1,45.7,30.11,North,351,6.0,12.0,68,0.00,,---,0.00,VWS V13.00,2013-11-19 16:32:00,
2013-11-19 11:37:00,56.4,46.4,30.11,North,9,7.0,13.0,69,0.00,,---,0.00,VWS V13.00,2013-11-19 16:37:00,
2013-11-19 11:42:00,56.7,46.3,30.11,NNW,348,6.0,14.0,68,0.00,,---,0.00,VWS V13.00,2013-11-19 16:42:00,
2013-11-19 11:47:00,56.8,46.4,30.11,North,5,6.0,16.0,68,0.00,,---,0.00,VWS V13.00,2013-11-19 16:47:00,
2013-11-19 11:52:00,56.8,46.4,30.11,NNE,23,2.0,16.0,68,0.00,,---,0.00,VWS V13.00,2013-11-19 16:52:00,
2013-11-19 11:57:00,56.9,46.1,30.11,NE,38,4.0,16.0,67,0.00,,---,0.00,VWS V13.00,2013-11-19 16:57:00,
2013-11-19 12:02:00,57.0,46.2,30.11,ENE,65,12.0,15.0,67,0.00,,---,0.00,VWS V13.00,2013-11-19 17:02:00,
2013-11-19 12:07:00,57.0,46.2,30.11,NE,54,10.0,17.0,67,0.00,,---,0.00,VWS V13.00,2013-11-19 17:07:00,
2013-11-19 12:12:00,56.8,46.0,30.11,North,355,7.0,17.0,67,0.00,,---,0.00,VWS V13.00,2013-11-19 17:12:00,
2013-11-19 12:17:00,56.8,46.0,30.11,North,11,5.0,18.0,67,0.00,,---,0.00,VWS V13.00,2013-11-19 17:17:00,
2013-11-19 12:22:00,56.8,46.0,30.11,North,9,4.0,18.0,67,0.00,,---,0.00,VWS V13.00,2013-11-19 17:22:00,
2013-11-19 12:27:00,56.7,45.5,30.11,NNE,18,9.0,18.0,66,0.00,,---,0.00,VWS V13.00,2013-11-19 17:27:00,
2013-11-19 12:32:00,56.6,45.4,30.11,NE,39,4.0,15.0,66,0.00,,---,0.00,VWS V13.00,2013-11-19 17:32:00,
2013-11-19 12:35:00,56.6,45.4,30.11,NNE,26,10.0,20.0,66,0.00,,---,0.00,VWS V13.00,2013-11-19 17:35:00,
2013-11-19 12:40:00,56.7,45.9,30.11,ENE,63,12.0,20.0,67,0.00,,---,0.00,VWS V13.00,2013-11-19 17:40:00,
2013-11-19 12:45:00,56.8,45.6,30.11,NE,53,10.0,20.0,66,0.00,,---,0.00,VWS V13.00,2013-11-19 17:45:00,
2013-11-19 12:50:00,56.8,45.6,30.11,NNE,25,11.0,20.0,66,0.00,,---,0.00,VWS V13.00,2013-11-19 17:50:00,
2013-11-19 12:55:00,57.1,45.9,30.11,NNW,348,4.0,20.0,66,0.00,,---,0.00,VWS V13.00,2013-11-19 17:55:00,
2013-11-19 13:00:00,57.2,46.0,30.11,North,5,8.0,20.0,66,0.00,,---,0.00,VWS V13.00,2013-11-19 18:00:00,
2013-11-19 13:05:00,57.3,46.0,30.11,NE,35,3.0,16.0,66,0.00,,---,0.00,VWS V13.00,2013-11-19 18:05:00,
2013-11-19 13:10:00,57.5,45.8,30.11,NE,41,6.0,16.0,65,0.00,,---,0.00,VWS V13.00,2013-11-19 18:10:00,
2013-11-19 13:15:00,57.3,45.7,30.11,ENE,77,4.0,16.0,65,0.00,,---,0.00,VWS V13.00,2013-11-19 18:15:00,
2013-11-19 13:20:00,57.3,46.0,30.11,NNE,18,7.0,16.0,66,0.00,,---,0.00,VWS V13.00,2013-11-19 18:20:00,
2013-11-19 13:25:00,57.5,45.8,30.11,NNW,344,3.0,16.0,65,0.00,,---,0.00,VWS V13.00,2013-11-19 18:25:00,
2013-11-19 13:30:00,57.5,45.8,30.11,North,5,3.0,16.0,65,0.00,,---,0.00,VWS V13.00,2013-11-19 18:30:00,
2013-11-19 13:35:00,57.6,45.9,30.11,NNE,16,10.0,13.0,65,0.00,,---,0.00,VWS V13.00,2013-11-19 18:35:00,
2013-11-19 13:40:00,57.5,45.8,30.11,NNW,344,9.0,15.0,65,0.00,,---,0.00,VWS V13.00,2013-11-19 18:40:00,
2013-11-19 13:45:00,57.3,45.7,30.10,NNE,12,6.0,15.0,65,0.00,,---,0.00,VWS V13.00,2013-11-19 18:45:00,
2013-11-19 13:50:00,57.3,45.7,30.10,North,5,9.0,15.0,65,0.00,,---,0.00,VWS V13.00,2013-11-19 18:50:00,
2013-11-19 13:55:00,57.3,45.7,30.10,ESE,103,5.0,15.0,65,0.00,,---,0.00,VWS V13.00,2013-11-19 18:55:00,
2013-11-19 14:00:00,57.3,45.7,30.10,East,98,8.0,15.0,65,0.00,,---,0.00,VWS V13.00,2013-11-19 19:00:00,
2013-11-19 14:05:00,57.2,45.6,30.10,NE,55,7.0,16.0,65,0.00,,---,0.00,VWS V13.00,2013-11-19 19:05:00,
2013-11-19 14:10:00,57.2,45.6,30.10,NE,51,10.0,16.0,65,0.00,,---,0.00,VWS V13.00,2013-11-19 19:10:00,
2013-11-19 14:15:00,57.2,45.2,30.10,NNE,29,9.0,16.0,64,0.00,,---,0.00,VWS V13.00,2013-11-19 19:15:00,
2013-11-19 14:20:00,56.9,44.9,30.10,NNW,331,5.0,16.0,64,0.00,,---,0.00,VWS V13.00,2013-11-19 19:20:00,
2013-11-19 14:25:00,56.8,44.8,30.10,NNE,22,6.0,16.0,64,0.00,,---,0.00,VWS V13.00,2013-11-19 19:25:00,
2013-11-19 14:30:00,56.6,44.6,30.10,NE,34,3.0,16.0,64,0.00,,---,0.00,VWS V13.00,2013-11-19 19:30:00,
2013-11-19 14:35:00,56.4,44.4,30.10,NNE,18,9.0,13.0,64,0.00,,---,0.00,VWS V13.00,2013-11-19 19:35:00,
2013-11-19 14:40:00,56.4,44.4,30.10,NNE,18,6.0,13.0,64,0.00,,---,0.00,VWS V13.00,2013-11-19 19:40:00,
2013-11-19 14:45:00,56.5,44.5,30.10,NE,36,8.0,13.0,64,0.00,,---,0.00,VWS V13.00,2013-11-19 19:45:00,
2013-11-19 14:50:00,56.4,44.4,30.10,NNE,31,7.0,16.0,64,0.00,,---,0.00,VWS V13.00,2013-11-19 19:50:00,
2013-11-19 14:55:00,56.2,44.2,30.10,North,11,14.0,16.0,64,0.00,,---,0.00,VWS V13.00,2013-11-19 19:55:00,
2013-11-19 15:00:00,56.0,43.6,30.11,East,89,4.0,16.0,63,0.00,,---,0.00,VWS V13.00,2013-11-19 20:00:00,
2013-11-19 15:05:00,55.9,43.9,30.11,NNE,15,15.0,15.0,64,0.00,,---,0.00,VWS V13.00,2013-11-19 20:05:00,
2013-11-19 15:10:00,55.8,43.8,30.11,NNE,15,6.0,15.0,64,0.00,,---,0.00,VWS V13.00,2013-11-19 20:10:00,
2013-11-19 15:15:00,55.5,43.1,30.11,ENE,63,1.0,15.0,63,0.00,,---,0.00,VWS V13.00,2013-11-19 20:15:00,
2013-11-19 15:20:00,55.4,43.0,30.11,NNE,12,14.0,15.0,63,0.00,,---,0.00,VWS V13.00,2013-11-19 20:20:00,
2013-11-19 15:25:00,55.1,43.2,30.11,East,80,5.0,17.0,64,0.00,,---,0.00,VWS V13.00,2013-11-19 20:25:00,
2013-11-19 15:30:00,55.1,43.2,30.11,NE,49,2.0,17.0,64,0.00,,---,0.00,VWS V13.00,2013-11-19 20:30:00,
2013-11-19 15:35:00,54.9,43.0,30.12,North,360,12.0,12.0,64,0.00,,---,0.00,VWS V13.00,2013-11-19 20:35:00,
2013-11-19 15:40:00,54.7,42.4,30.12,NE,42,12.0,15.0,63,0.00,,---,0.00,VWS V13.00,2013-11-19 20:40:00,
2013-11-19 15:45:00,54.4,42.1,30.12,North,355,12.0,15.0,63,0.00,,---,0.00,VWS V13.00,2013-11-19 20:45:00,
2013-11-19 15:50:00,54.1,41.8,30.13,North,355,3.0,17.0,63,0.00,,---,0.00,VWS V13.00,2013-11-19 20:50:00,
2013-11-19 15:55:00,53.7,41.4,30.13,North,11,3.0,17.0,63,0.00,,---,0.00,VWS V13.00,2013-11-19 20:55:00,
2013-11-19 16:00:00,53.4,41.5,30.13,NNE,20,1.0,17.0,64,0.00,,---,0.00,VWS V13.00,2013-11-19 21:00:00,
2013-11-19 16:05:00,53.3,41.5,30.13,NE,44,8.0,14.0,64,0.00,,---,0.00,VWS V13.00,2013-11-19 21:05:00,
2013-11-19 16:10:00,53.2,41.3,30.13,NE,53,6.0,14.0,64,0.00,,---,0.00,VWS V13.00,2013-11-19 21:10:00,
2013-11-19 16:15:00,53.1,41.3,30.13,NNE,25,4.0,14.0,64,0.00,,---,0.00,VWS V13.00,2013-11-19 21:15:00,
2013-11-19 16:20:00,53.0,41.2,30.14,NNE,17,6.0,14.0,64,0.00,,---,0.00,VWS V13.00,2013-11-19 21:20:00,
2013-11-19 16:25:00,52.9,41.1,30.14,NE,37,5.0,14.0,64,0.00,,---,0.00,VWS V13.00,2013-11-19 21:25:00,
2013-11-19 16:30:00,52.8,41.0,30.14,NNE,30,3.0,14.0,64,0.00,,---,0.00,VWS V13.00,2013-11-19 21:30:00,
2013-11-19 16:35:00,52.6,40.8,30.14,NE,38,2.0,10.0,64,0.00,,---,0.00,VWS V13.00,2013-11-19 21:35:00,
2013-11-19 16:40:00,52.4,40.6,30.14,NNE,22,5.0,10.0,64,0.00,,---,0.00,VWS V13.00,2013-11-19 21:40:00,
2013-11-19 16:45:00,52.2,40.4,30.14,North,10,5.0,10.0,64,0.00,,---,0.00,VWS V13.00,2013-11-19 21:45:00,
2013-11-19 16:50:00,51.9,40.5,30.15,NNE,22,5.0,13.0,65,0.00,,---,0.00,VWS V13.00,2013-11-19 21:50:00,
2013-11-19 16:55:00,51.8,40.4,30.15,ENE,71,5.0,13.0,65,0.00,,---,0.00,VWS V13.00,2013-11-19 21:55:00,
2013-11-19 17:00:00,51.5,40.1,30.15,NNE,16,3.0,13.0,65,0.00,,---,0.00,VWS V13.00,2013-11-19 22:00:00,
2013-11-19 17:05:00,51.3,40.0,30.16,North,5,2.0,7.0,65,0.00,,---,0.00,VWS V13.00,2013-11-19 22:05:00,
2013-11-19 17:10:00,51.0,39.7,30.16,North,5,3.0,8.0,65,0.00,,---,0.00,VWS V13.00,2013-11-19 22:10:00,
2013-11-19 17:15:00,50.6,39.3,30.16,North,5,3.0,9.0,65,0.00,,---,0.00,VWS V13.00,2013-11-19 22:15:00,
2013-11-19 17:20:00,50.4,39.1,30.17,North,11,4.0,9.0,65,0.00,,---,0.00,VWS V13.00,2013-11-19 22:20:00,
2013-11-19 17:25:00,50.1,39.2,30.17,NNE,24,6.0,9.0,66,0.00,,---,0.00,VWS V13.00,2013-11-19 22:25:00,
2013-11-19 17:30:00,49.9,39.0,30.17,NNE,18,4.0,9.0,66,0.00,,---,0.00,VWS V13.00,2013-11-19 22:30:00,
2013-11-19 17:35:00,49.7,38.8,30.17,North,355,6.0,6.0,66,0.00,,---,0.00,VWS V13.00,2013-11-19 22:35:00,
2013-11-19 17:40:00,49.4,38.5,30.18,NNE,14,3.0,7.0,66,0.00,,---,0.00,VWS V13.00,2013-11-19 22:40:00,
2013-11-19 17:45:00,49.2,38.3,30.17,North,360,2.0,7.0,66,0.00,,---,0.00,VWS V13.00,2013-11-19 22:45:00,
2013-11-19 17:50:00,48.9,38.1,30.18,NNE,18,1.0,7.0,66,0.00,,---,0.00,VWS V13.00,2013-11-19 22:50:00,
2013-11-19 17:55:00,48.7,38.2,30.18,North,9,1.0,7.0,67,0.00,,---,0.00,VWS V13.00,2013-11-19 22:55:00,
2013-11-19 18:00:00,48.5,38.1,30.19,NE,44,1.0,7.0,67,0.00,,---,0.00,VWS V13.00,2013-11-19 23:00:00,
2013-11-19 18:05:00,48.3,37.9,30.19,ENE,62,2.0,6.0,67,0.00,,---,0.00,VWS V13.00,2013-11-19 23:05:00,
2013-11-19 18:10:00,48.3,37.9,30.19,NNE,24,4.0,11.0,67,0.00,,---,0.00,VWS V13.00,2013-11-19 23:10:00,
2013-11-19 18:15:00,48.4,38.3,30.19,East,84,5.0,11.0,68,0.00,,---,0.00,VWS V13.00,2013-11-19 23:15:00,
2013-11-19 18:20:00,48.6,38.5,30.19,North,5,2.0,11.0,68,0.00,,---,0.00,VWS V13.00,2013-11-19 23:20:00,
2013-11-19 18:25:00,48.7,38.6,30.20,NNE,26,6.0,11.0,68,0.00,,---,0.00,VWS V13.00,2013-11-19 23:25:00,
2013-11-19 18:30:00,48.9,38.8,30.20,ENE,63,7.0,15.0,68,0.00,,---,0.00,VWS V13.00,2013-11-19 23:30:00,
2013-11-19 18:35:00,49.0,38.9,30.20,NE,50,12.0,13.0,68,0.00,,---,0.00,VWS V13.00,2013-11-19 23:35:00,
2013-11-19 18:40:00,48.9,38.8,30.21,ENE,70,4.0,13.0,68,0.00,,---,0.00,VWS V13.00,2013-11-19 23:40:00,
2013-11-19 18:45:00,48.9,38.8,30.21,NE,41,2.0,13.0,68,0.00,,---,0.00,VWS V13.00,2013-11-19 23:45:00,
2013-11-19 18:50:00,48.8,38.7,30.21,NE,46,1.0,14.0,68,0.00,,---,0.00,VWS V13.00,2013-11-19 23:50:00,
2013-11-19 18:55:00,48.7,39.0,30.21,ENE,76,3.0,14.0,69,0.00,,---,0.00,VWS V13.00,2013-11-19 23:55:00,
2013-11-19 19:00:00,48.6,38.9,30.21,NE,49,5.0,14.0,69,0.00,,---,0.00,VWS V13.00,2013-11-20 00:00:00,
2013-11-19 19:05:00,48.5,38.8,30.21,NNE,30,8.0,13.0,69,0.00,,---,0.00,VWS V13.00,2013-11-20 00:05:00,
2013-11-19 19:10:00,48.3,38.6,30.21,NNE,28,3.0,13.0,69,0.00,,---,0.00,VWS V13.00,2013-11-20 00:10:00,
2013-11-19 19:15:00,48.3,38.6,30.22,NE,48,7.0,13.0,69,0.00,,---,0.00,VWS V13.00,2013-11-20 00:15:00,
2013-11-19 19:20:00,48.2,38.5,30.22,NE,53,2.0,13.0,69,0.00,,---,0.00,VWS V13.00,2013-11-20 00:20:00,
2013-11-19 19:25:00,48.0,38.3,30.22,NE,43,4.0,13.0,69,0.00,,---,0.00,VWS V13.00,2013-11-20 00:25:00,
2013-11-19 19:30:00,47.9,38.6,30.22,NNE,19,2.0,13.0,70,0.00,,---,0.00,VWS V13.00,2013-11-20 00:30:00,
2013-11-19 19:35:00,47.7,38.4,30.22,NNE,25,1.0,12.0,70,0.00,,---,0.00,VWS V13.00,2013-11-20 00:35:00,
2013-11-19 19:40:00,47.6,38.3,30.23,NE,40,1.0,12.0,70,0.00,,---,0.00,VWS V13.00,2013-11-20 00:40:00,
2013-11-19 19:45:00,47.4,38.1,30.23,NNE,25,4.0,12.0,70,0.00,,---,0.00,VWS V13.00,2013-11-20 00:45:00,
2013-11-19 19:50:00,47.4,38.1,30.23,NE,49,1.0,12.0,70,0.00,,---,0.00,VWS V13.00,2013-11-20 00:50:00,
2013-11-19 19:55:00,47.3,38.0,30.23,NNE,15,2.0,12.0,70,0.00,,---,0.00,VWS V13.00,2013-11-20 00:55:00,
2013-11-19 20:00:00,47.2,37.9,30.23,NE,39,4.0,12.0,70,0.00,,---,0.00,VWS V13.00,2013-11-20 01:00:00,
2013-11-19 20:05:00,47.0,37.7,30.23,NE,54,1.0,10.0,70,0.00,,---,0.00,VWS V13.00,2013-11-20 01:05:00,
2013-11-19 20:10:00,46.9,37.6,30.23,ENE,67,4.0,10.0,70,0.00,,---,0.00,VWS V13.00,2013-11-20 01:10:00,
2013-11-19 20:15:00,46.8,37.5,30.23,NNE,21,3.0,10.0,70,0.00,,---,0.00,VWS V13.00,2013-11-20 01:15:00,
2013-11-19 20:20:00,46.7,37.8,30.23,NE,49,4.0,12.0,71,0.00,,---,0.00,VWS V13.00,2013-11-20 01:20:00,
2013-11-19 20:25:00,46.6,37.7,30.24,NE,49,2.0,12.0,71,0.00,,---,0.00,VWS V13.00,2013-11-20 01:25:00,
2013-11-19 20:30:00,46.5,37.6,30.24,NE,42,2.0,12.0,71,0.00,,---,0.00,VWS V13.00,2013-11-20 01:30:00,
2013-11-19 20:35:00,46.4,37.5,30.24,NNE,32,2.0,7.0,71,0.00,,---,0.00,VWS V13.00,2013-11-20 01:35:00,
2013-11-19 20:40:00,46.4,37.5,30.23,East,86,5.0,7.0,71,0.00,,---,0.00,VWS V13.00,2013-11-20 01:40:00,
2013-11-19 20:45:00,46.3,37.4,30.24,ENE,59,0.0,7.0,71,0.00,,---,0.00,VWS V13.00,2013-11-20 01:45:00,
2013-11-19 20:50:00,46.2,37.3,30.24,North,360,3.0,9.0,71,0.00,,---,0.00,VWS V13.00,2013-11-20 01:50:00,
2013-11-19 20:55:00,46.1,37.2,30.23,NE,38,3.0,9.0,71,0.00,,---,0.00,VWS V13.00,2013-11-20 01:55:00,
2013-11-19 21:00:00,46.1,37.2,30.23,East,81,2.0,10.0,71,0.00,,---,0.00,VWS V13.00,2013-11-20 02:00:00,
2013-11-19 21:05:00,46.0,37.1,30.24,ENE,68,1.0,13.0,71,0.00,,---,0.00,VWS V13.00,2013-11-20 02:05:00,
2013-11-19 21:10:00,45.9,37.0,30.24,North,5,3.0,13.0,71,0.00,,---,0.00,VWS V13.00,2013-11-20 02:10:00,
2013-11-19 21:15:00,45.8,37.3,30.24,NNE,27,6.0,13.0,72,0.00,,---,0.00,VWS V13.00,2013-11-20 02:15:00,
2013-11-19 21:20:00,45.8,37.3,30.24,North,5,3.0,13.0,72,0.00,,---,0.00,VWS V13.00,2013-11-20 02:20:00,
2013-11-19 21:25:00,45.7,36.8,30.24,NE,36,3.0,13.0,71,0.00,,---,0.00,VWS V13.00,2013-11-20 02:25:00,
2013-11-19 21:30:00,45.6,37.1,30.24,North,9,2.0,13.0,72,0.00,,---,0.00,VWS V13.00,2013-11-20 02:30:00,
2013-11-19 21:35:00,45.5,37.0,30.24,NNE,19,2.0,10.0,72,0.00,,---,0.00,VWS V13.00,2013-11-20 02:35:00,
2013-11-19 21:40:00,45.4,36.9,30.25,NNE,22,4.0,10.0,72,0.00,,---,0.00,VWS V13.00,2013-11-20 02:40:00,
2013-11-19 21:45:00,45.3,36.8,30.25,NNE,14,0.0,10.0,72,0.00,,---,0.00,VWS V13.00,2013-11-20 02:45:00,
2013-11-19 21:50:00,45.1,36.6,30.25,North,5,0.0,10.0,72,0.00,,---,0.00,VWS V13.00,2013-11-20 02:50:00,
2013-11-19 21:55:00,44.9,36.4,30.25,NNE,13,0.0,10.0,72,0.00,,---,0.00,VWS V13.00,2013-11-20 02:55:00,
2013-11-19 22:00:00,44.5,36.0,30.25,North,5,1.0,10.0,72,0.00,,---,0.00,VWS V13.00,2013-11-20 03:00:00,
2013-11-19 22:05:00,44.2,35.8,30.25,NE,39,2.0,5.0,72,0.00,,---,0.00,VWS V13.00,2013-11-20 03:05:00,
2013-11-19 22:10:00,44.0,35.6,30.26,NE,36,2.0,5.0,72,0.00,,---,0.00,VWS V13.00,2013-11-20 03:10:00,
2013-11-19 22:15:00,43.8,35.4,30.26,North,5,2.0,5.0,72,0.00,,---,0.00,VWS V13.00,2013-11-20 03:15:00,
2013-11-19 22:20:00,43.6,35.2,30.26,NNE,17,2.0,5.0,72,0.00,,---,0.00,VWS V13.00,2013-11-20 03:20:00,
2013-11-19 22:25:00,43.3,34.9,30.26,NNE,31,4.0,7.0,72,0.00,,---,0.00,VWS V13.00,2013-11-20 03:25:00,
2013-11-19 22:30:00,43.2,34.8,30.27,North,5,5.0,7.0,72,0.00,,---,0.00,VWS V13.00,2013-11-20 03:30:00,
2013-11-19 22:35:00,43.2,34.8,30.27,NNW,348,3.0,4.0,72,0.00,,---,0.00,VWS V13.00,2013-11-20 03:35:00,
2013-11-19 22:40:00,43.0,34.6,30.27,North,355,3.0,4.0,72,0.00,,---,0.00,VWS V13.00,2013-11-20 03:40:00,
2013-11-19 22:45:00,42.9,34.5,30.27,North,355,0.0,4.0,72,0.00,,---,0.00,VWS V13.00,2013-11-20 03:45:00,
2013-11-19 22:51:00,42.9,34.8,30.27,NNE,30,0.0,7.0,73,0.00,,---,0.00,VWS V13.00,2013-11-20 03:51:00,
2013-11-19 22:56:00,42.9,34.8,30.27,NNW,327,2.0,7.0,73,0.00,,---,0.00,VWS V13.00,2013-11-20 03:56:00,
2013-11-19 23:01:00,42.9,34.8,30.27,NNE,22,3.0,9.0,73,0.00,,---,0.00,VWS V13.00,2013-11-20 04:01:00,
2013-11-19 23:06:00,43.0,35.0,30.28,North,11,7.0,8.0,73,0.00,,---,0.00,VWS V13.00,2013-11-20 04:06:00,
2013-11-19 23:11:00,43.2,35.1,30.28,North,355,3.0,8.0,73,0.00,,---,0.00,VWS V13.00,2013-11-20 04:11:00,
2013-11-19 23:16:00,43.3,35.2,30.28,NNE,21,4.0,8.0,73,0.00,,---,0.00,VWS V13.00,2013-11-20 04:16:00,
2013-11-19 23:21:00,43.3,35.2,30.28,NNW,341,6.0,8.0,73,0.00,,---,0.00,VWS V13.00,2013-11-20 04:21:00,
2013-11-19 23:26:00,43.4,35.3,30.28,North,360,4.0,8.0,73,0.00,,---,0.00,VWS V13.00,2013-11-20 04:26:00,
2013-11-19 23:31:00,43.4,35.3,30.28,NNW,348,3.0,8.0,73,0.00,,---,0.00,VWS V13.00,2013-11-20 04:31:00,
2013-11-19 23:36:00,43.5,35.4,30.28,NE,47,1.0,9.0,73,0.00,,---,0.00,VWS V13.00,2013-11-20 04:36:00,
2013-11-19 23:41:00,43.5,35.4,30.27,North,355,1.0,9.0,73,0.00,,---,0.00,VWS V13.00,2013-11-20 04:41:00,
2013-11-19 23:46:00,43.6,35.5,30.28,NE,51,5.0,10.0,73,0.00,,---,0.00,VWS V13.00,2013-11-20 04:46:00,
2013-11-19 23:51:00,43.7,35.6,30.28,NNE,21,3.0,10.0,73,0.00,,---,0.00,VWS V13.00,2013-11-20 04:51:00,
2013-11-19 23:56:00,44.0,35.9,30.28,NNW,332,3.0,10.0,73,0.00,,---,0.00,VWS V13.00,2013-11-20 04:56:00,